createdAt,value
2023-05-23T00:01:00.118Z,14.55
2023-05-23T00:03:27.608Z,14.53
2023-05-23T00:05:56.587Z,14.54
2023-05-23T00:08:23.979Z,14.53
2023-05-23T00:10:51.436Z,14.52
2023-05-23T00:13:18.831Z,14.53
2023-05-23T00:15:46.802Z,14.51
2023-05-23T00:18:13.991Z,14.49
2023-05-23T00:20:42.580Z,14.49
2023-05-23T00:23:10.323Z,14.50
2023-05-23T00:25:37.951Z,14.43
2023-05-23T00:28:06.245Z,14.30
2023-05-23T00:30:34.015Z,14.25
2023-05-23T00:33:01.742Z,14.16
2023-05-23T00:35:28.973Z,14.03
2023-05-23T00:37:56.326Z,13.89
2023-05-23T00:40:23.730Z,13.87
2023-05-23T00:42:50.917Z,13.87
2023-05-23T00:45:18.156Z,13.84
2023-05-23T00:47:46.141Z,13.78
2023-05-23T00:50:14.845Z,13.73
2023-05-23T00:52:45.843Z,13.65
2023-05-23T00:55:13.514Z,13.63
2023-05-23T00:57:40.833Z,13.63
2023-05-23T01:00:10.000Z,13.65
2023-05-23T01:02:41.811Z,13.72
2023-05-23T01:05:11.352Z,13.77
2023-05-23T01:07:39.253Z,13.82
2023-05-23T01:10:07.406Z,13.83
2023-05-23T01:12:39.095Z,13.85
2023-05-23T01:15:09.035Z,13.88
2023-05-23T01:17:48.906Z,13.87
2023-05-23T01:20:24.402Z,13.89
2023-05-23T01:22:55.330Z,13.89
2023-05-23T01:25:31.828Z,13.92
2023-05-23T01:28:01.275Z,13.94
2023-05-23T01:30:32.133Z,13.96
2023-05-23T01:32:59.558Z,13.98
2023-05-23T01:35:27.442Z,13.97
2023-05-23T01:37:55.454Z,13.96
2023-05-23T01:40:23.502Z,13.94
2023-05-23T01:42:51.060Z,13.93
2023-05-23T01:45:18.200Z,13.91
2023-05-23T01:47:45.470Z,13.89
2023-05-23T01:50:12.756Z,13.88
2023-05-23T01:52:40.169Z,13.84
2023-05-23T01:55:09.709Z,13.77
2023-05-23T01:57:38.199Z,13.56
2023-05-23T02:00:06.795Z,13.35
2023-05-23T02:02:40.797Z,13.20
2023-05-23T02:05:10.061Z,13.15
2023-05-23T02:07:37.467Z,13.17
2023-05-23T02:10:08.125Z,13.11
2023-05-23T02:12:35.475Z,13.01
2023-05-23T02:15:02.710Z,12.89
2023-05-23T02:17:31.147Z,12.73
2023-05-23T02:19:58.366Z,12.58
2023-05-23T02:22:25.837Z,12.43
2023-05-23T02:24:53.013Z,12.32
2023-05-23T02:27:20.384Z,12.23
2023-05-23T02:29:47.653Z,12.14
2023-05-23T02:32:14.917Z,12.06
2023-05-23T02:34:42.114Z,12.02
2023-05-23T02:37:09.284Z,11.99
2023-05-23T02:39:37.110Z,11.99
2023-05-23T02:42:05.040Z,12.00
2023-05-23T02:44:32.908Z,12.01
2023-05-23T02:47:00.135Z,12.02
2023-05-23T02:49:27.358Z,12.06
2023-05-23T02:51:54.569Z,12.08
2023-05-23T02:54:22.387Z,12.10
2023-05-23T02:56:52.432Z,12.10
2023-05-23T02:59:19.720Z,12.12
2023-05-23T03:01:46.919Z,12.13
2023-05-23T03:04:14.617Z,12.15
2023-05-23T03:06:44.531Z,12.19
2023-05-23T03:09:12.066Z,12.24
2023-05-23T03:11:40.731Z,12.28
2023-05-23T03:14:08.044Z,12.32
2023-05-23T03:16:35.540Z,12.37
2023-05-23T03:19:03.036Z,12.42
2023-05-23T03:21:32.116Z,12.50
2023-05-23T03:23:59.431Z,12.58
2023-05-23T03:26:27.058Z,12.63
2023-05-23T03:28:54.254Z,12.66
2023-05-23T03:31:21.769Z,12.68
2023-05-23T03:33:49.069Z,12.69
2023-05-23T03:36:17.062Z,12.74
2023-05-23T03:38:44.368Z,12.80
2023-05-23T03:41:11.822Z,12.86
2023-05-23T03:43:39.202Z,12.93
2023-05-23T03:46:07.207Z,13.00
2023-05-23T03:48:34.649Z,13.06
2023-05-23T03:51:02.839Z,13.10
2023-05-23T03:53:31.152Z,13.14
2023-05-23T03:55:58.400Z,13.19
2023-05-23T03:58:26.209Z,13.23
2023-05-23T04:00:56.630Z,13.28
2023-05-23T04:03:24.224Z,13.33
2023-05-23T04:05:52.198Z,13.39
2023-05-23T04:08:22.395Z,13.46
2023-05-23T04:10:51.570Z,13.51
2023-05-23T04:13:19.220Z,13.57
2023-05-23T04:15:48.294Z,13.63
2023-05-23T04:18:17.425Z,13.71
2023-05-23T04:20:46.377Z,13.81
2023-05-23T04:23:13.637Z,13.89
2023-05-23T04:25:42.609Z,13.97
2023-05-23T04:28:17.578Z,14.07
2023-05-23T04:30:45.076Z,14.17
2023-05-23T04:33:13.419Z,14.26
2023-05-23T04:35:41.301Z,14.31
2023-05-23T04:38:09.233Z,14.37
2023-05-23T04:40:36.534Z,14.44
2023-05-23T04:43:27.521Z,14.54
2023-05-23T04:45:58.359Z,14.62
2023-05-23T04:48:36.201Z,14.73
2023-05-23T04:51:07.971Z,14.79
2023-05-23T04:53:38.729Z,14.87
2023-05-23T04:56:08.771Z,14.93
2023-05-23T04:58:37.906Z,15.00
2023-05-23T05:01:09.845Z,15.06
2023-05-23T05:03:37.612Z,15.13
2023-05-23T05:06:06.133Z,15.23
2023-05-23T05:08:33.518Z,15.33
2023-05-23T05:11:00.927Z,15.43
2023-05-23T05:13:28.306Z,15.52
2023-05-23T05:15:57.061Z,15.61
2023-05-23T05:18:28.635Z,15.67
2023-05-23T05:20:57.297Z,15.74
2023-05-23T05:23:25.901Z,15.79
2023-05-23T05:25:53.135Z,15.86
2023-05-23T05:28:21.911Z,15.93
2023-05-23T05:30:55.116Z,15.97
2023-05-23T05:33:24.010Z,16.02
2023-05-23T05:35:57.693Z,16.12
2023-05-23T05:38:24.906Z,16.22
2023-05-23T05:40:53.332Z,16.34
2023-05-23T05:43:22.627Z,16.48
2023-05-23T05:45:50.445Z,16.58
2023-05-23T05:48:17.711Z,16.66
2023-05-23T05:50:46.835Z,16.77
2023-05-23T05:53:14.609Z,16.87
2023-05-23T05:55:43.037Z,16.96
2023-05-23T05:58:10.257Z,17.01
2023-05-23T06:00:50.018Z,17.07
2023-05-23T06:03:17.872Z,17.16
2023-05-23T06:05:51.498Z,17.24
2023-05-23T06:08:18.836Z,17.33
2023-05-23T06:10:47.039Z,17.43
2023-05-23T06:13:14.833Z,17.56
2023-05-23T06:15:44.265Z,17.68
2023-05-23T06:18:12.260Z,17.82
2023-05-23T06:20:40.697Z,17.91
2023-05-23T06:23:11.305Z,17.95
2023-05-23T06:25:39.286Z,17.97
2023-05-23T06:28:06.804Z,17.99
2023-05-23T06:30:37.561Z,17.99
2023-05-23T06:33:05.162Z,18.05
2023-05-23T06:35:32.567Z,18.19
2023-05-23T06:38:01.602Z,18.34
2023-05-23T06:40:28.895Z,18.46
2023-05-23T06:42:56.669Z,18.58
2023-05-23T06:45:40.389Z,18.70
2023-05-23T06:48:08.051Z,18.80
2023-05-23T06:50:36.569Z,18.92
2023-05-23T06:53:04.214Z,19.03
2023-05-23T06:55:33.858Z,19.09
2023-05-23T06:58:04.059Z,19.11
2023-05-23T07:00:32.018Z,19.11
2023-05-23T07:03:07.710Z,19.13
2023-05-23T07:05:37.915Z,19.20
2023-05-23T07:08:10.964Z,19.27
2023-05-23T07:10:41.993Z,19.29
2023-05-23T07:13:22.682Z,19.28
2023-05-23T07:15:50.227Z,19.30
2023-05-23T07:18:18.854Z,19.31
2023-05-23T07:20:46.045Z,19.35
2023-05-23T07:23:17.725Z,19.43
2023-05-23T07:26:01.338Z,19.61
2023-05-23T07:28:37.801Z,19.88
2023-05-23T07:31:05.162Z,19.97
2023-05-23T07:35:55.068Z,20.12
2023-05-23T07:38:22.362Z,20.29
2023-05-23T07:40:58.757Z,20.30
2023-05-23T07:43:30.279Z,20.33
2023-05-23T07:45:57.554Z,20.44
2023-05-23T07:48:27.188Z,20.56
2023-05-23T07:50:57.329Z,20.65
2023-05-23T07:53:24.972Z,20.75
2023-05-23T07:55:52.982Z,20.80
2023-05-23T07:58:20.980Z,20.94
2023-05-23T08:00:50.374Z,21.09
2023-05-23T08:05:15.783Z,21.07
2023-05-23T08:07:43.238Z,21.20
2023-05-23T08:10:11.192Z,21.31
2023-05-23T08:12:39.327Z,21.41
2023-05-23T08:15:10.754Z,21.48
2023-05-23T08:17:42.415Z,21.57
2023-05-23T08:20:10.351Z,21.59
2023-05-23T08:22:37.921Z,21.59
2023-05-23T08:25:06.026Z,21.55
2023-05-23T08:27:36.055Z,21.57
2023-05-23T08:30:09.877Z,21.70
2023-05-23T08:32:37.300Z,21.79
2023-05-23T08:35:06.062Z,21.81
2023-05-23T08:37:33.395Z,21.89
2023-05-23T08:40:00.736Z,22.05
2023-05-23T08:42:44.090Z,22.23
2023-05-23T08:45:12.428Z,22.35
2023-05-23T08:47:42.845Z,22.43
2023-05-23T08:50:15.051Z,22.40
2023-05-23T08:52:56.188Z,22.37
2023-05-23T08:55:28.141Z,22.39
2023-05-23T08:57:56.172Z,22.32
2023-05-23T09:00:31.730Z,22.22
2023-05-23T09:02:59.214Z,22.17
2023-05-23T09:08:24.788Z,22.11
2023-05-23T09:10:54.299Z,22.10
2023-05-23T09:13:21.726Z,22.06
2023-05-23T09:16:02.840Z,22.02
2023-05-23T09:18:37.791Z,21.95
2023-05-23T09:21:05.754Z,21.91
2023-05-23T09:23:33.958Z,21.88
2023-05-23T09:26:05.826Z,21.90
2023-05-23T09:28:33.764Z,21.98
2023-05-23T09:31:04.814Z,22.06
2023-05-23T09:33:37.687Z,22.17
2023-05-23T09:36:06.379Z,22.29
2023-05-23T09:38:41.107Z,22.43
2023-05-23T09:41:12.383Z,22.53
2023-05-23T09:43:40.772Z,22.63
2023-05-23T09:46:12.001Z,22.72
2023-05-23T09:48:39.542Z,22.76
2023-05-23T09:51:10.761Z,22.73
2023-05-23T09:53:37.944Z,22.74
2023-05-23T09:56:05.225Z,22.77
2023-05-23T09:58:33.359Z,22.82
2023-05-23T10:01:03.812Z,22.92
2023-05-23T10:03:35.729Z,22.91
2023-05-23T10:06:37.967Z,22.97
2023-05-23T10:09:05.844Z,23.09
2023-05-23T10:11:36.094Z,23.13
2023-05-23T10:14:06.751Z,23.16
2023-05-23T10:16:49.444Z,23.13
2023-05-23T10:19:19.585Z,23.15
2023-05-23T10:21:50.630Z,23.20
2023-05-23T10:24:17.812Z,23.30
2023-05-23T10:26:44.985Z,23.34
2023-05-23T10:29:12.233Z,23.36
2023-05-23T10:31:39.498Z,23.31
2023-05-23T10:34:17.717Z,23.19
2023-05-23T10:37:04.289Z,23.13
2023-05-23T10:39:36.475Z,23.13
2023-05-23T10:42:08.326Z,23.10
2023-05-23T10:44:35.654Z,23.03
2023-05-23T10:47:04.307Z,23.06
2023-05-23T10:49:40.003Z,23.14
2023-05-23T10:52:07.719Z,23.27
2023-05-23T10:54:56.254Z,23.38
2023-05-23T10:57:27.771Z,23.47
2023-05-23T10:59:54.926Z,23.51
2023-05-23T11:02:26.698Z,23.54
2023-05-23T11:05:20.696Z,23.60
2023-05-23T11:08:06.260Z,23.70
2023-05-23T11:10:33.483Z,23.71
2023-05-23T11:13:07.590Z,23.69
2023-05-23T11:15:45.859Z,23.61
2023-05-23T11:18:24.142Z,23.51
2023-05-23T11:20:54.271Z,23.50
2023-05-23T11:23:22.357Z,23.54
2023-05-23T11:25:51.467Z,23.57
2023-05-23T11:28:18.791Z,23.52
2023-05-23T11:30:49.746Z,23.42
2023-05-23T11:33:18.339Z,23.32
2023-05-23T11:35:47.946Z,23.30
2023-05-23T11:38:18.445Z,23.35
2023-05-23T11:40:46.612Z,23.41
2023-05-23T11:43:15.606Z,23.40
2023-05-23T11:45:43.264Z,23.34
2023-05-23T11:48:14.903Z,23.31
2023-05-23T11:50:50.067Z,23.29
2023-05-23T11:53:20.744Z,23.30
2023-05-23T11:55:55.340Z,23.35
2023-05-23T11:58:22.993Z,23.46
2023-05-23T12:00:51.340Z,23.56
2023-05-23T12:03:19.703Z,23.64
2023-05-23T12:05:47.169Z,23.71
2023-05-23T12:08:15.109Z,23.78
2023-05-23T12:10:52.893Z,23.86
2023-05-23T12:13:20.791Z,23.91
2023-05-23T12:15:49.449Z,23.97
2023-05-23T12:18:20.483Z,23.97
2023-05-23T12:20:51.818Z,23.85
2023-05-23T12:23:22.575Z,23.77
2023-05-23T12:25:51.937Z,23.74
2023-05-23T12:28:20.610Z,23.66
2023-05-23T12:30:48.808Z,23.57
2023-05-23T12:33:16.122Z,23.45
2023-05-23T12:35:45.080Z,23.35
2023-05-23T12:38:16.431Z,23.25
2023-05-23T12:40:43.917Z,23.16
2023-05-23T12:43:11.380Z,23.12
2023-05-23T12:45:39.097Z,23.15
2023-05-23T12:48:12.257Z,23.24
2023-05-23T12:50:39.646Z,23.42
2023-05-23T12:53:07.066Z,23.53
2023-05-23T12:55:34.635Z,23.59
2023-05-23T12:58:01.733Z,23.63
2023-05-23T13:00:28.938Z,23.74
2023-05-23T13:02:56.586Z,23.80
2023-05-23T13:05:24.423Z,23.76
2023-05-23T13:07:51.820Z,23.68
2023-05-23T13:10:19.372Z,23.64
2023-05-23T13:12:46.606Z,23.61
2023-05-23T13:15:13.861Z,23.57
2023-05-23T13:17:41.127Z,23.56
2023-05-23T13:20:09.612Z,23.56
2023-05-23T13:22:36.841Z,23.62
2023-05-23T13:25:04.681Z,23.69
2023-05-23T13:27:31.908Z,23.73
2023-05-23T13:29:59.097Z,23.79
2023-05-23T13:32:26.326Z,23.78
2023-05-23T13:34:53.627Z,23.77
2023-05-23T13:37:21.001Z,23.74
2023-05-23T13:39:48.417Z,23.74
2023-05-23T13:42:15.722Z,23.75
2023-05-23T13:44:42.876Z,23.76
2023-05-23T13:47:14.163Z,23.78
2023-05-23T13:49:41.983Z,23.83
2023-05-23T13:52:09.264Z,23.85
2023-05-23T13:54:36.778Z,23.87
2023-05-23T13:57:04.560Z,23.89
2023-05-23T13:59:31.756Z,23.89
2023-05-23T14:01:59.060Z,23.92
2023-05-23T14:04:26.432Z,23.95
2023-05-23T14:06:53.745Z,23.99
2023-05-23T14:09:23.035Z,24.00
2023-05-23T14:11:52.450Z,23.97
2023-05-23T14:14:19.653Z,23.95
2023-05-23T14:16:46.951Z,23.94
2023-05-23T14:19:14.490Z,23.90
2023-05-23T14:21:44.029Z,23.85
2023-05-23T14:24:12.329Z,23.83
2023-05-23T14:26:39.612Z,23.83
2023-05-23T14:29:06.995Z,23.80
2023-05-23T14:31:34.346Z,23.81
2023-05-23T14:34:01.751Z,23.79
2023-05-23T14:36:29.107Z,23.78
2023-05-23T14:38:56.291Z,23.79
2023-05-23T14:41:23.490Z,23.83
2023-05-23T14:43:51.170Z,23.87
2023-05-23T14:46:18.528Z,23.88
2023-05-23T14:48:45.705Z,23.89
2023-05-23T14:51:21.428Z,23.89
2023-05-23T14:53:54.631Z,23.90
2023-05-23T14:56:23.432Z,23.93
2023-05-23T14:58:51.193Z,23.92
2023-05-23T15:01:18.433Z,23.92
2023-05-23T15:03:46.138Z,23.93
2023-05-23T15:06:13.657Z,23.93
2023-05-23T15:08:41.476Z,23.92
2023-05-23T15:11:09.838Z,23.88
2023-05-23T15:13:37.089Z,23.81
2023-05-23T15:16:04.504Z,23.78
2023-05-23T15:18:39.950Z,23.76
2023-05-23T15:21:08.390Z,23.71
2023-05-23T15:23:35.839Z,23.66
2023-05-23T15:26:03.078Z,23.65
2023-05-23T15:28:30.333Z,23.65
2023-05-23T15:30:59.064Z,23.65
2023-05-23T15:33:26.319Z,23.62
2023-05-23T15:35:54.930Z,23.63
2023-05-23T15:38:22.241Z,23.64
2023-05-23T15:40:49.488Z,23.59
2023-05-23T15:43:16.689Z,23.56
2023-05-23T15:45:43.991Z,23.52
2023-05-23T15:48:11.403Z,23.49
2023-05-23T15:50:44.209Z,23.46
2023-05-23T15:53:11.804Z,23.41
2023-05-23T15:55:42.048Z,23.38
2023-05-23T15:58:11.425Z,23.35
2023-05-23T16:00:39.209Z,23.32
2023-05-23T16:03:07.004Z,23.29
2023-05-23T16:05:34.146Z,23.21
2023-05-23T16:08:01.388Z,23.17
2023-05-23T16:10:28.670Z,23.16
2023-05-23T16:12:55.939Z,23.17
2023-05-23T16:15:23.158Z,23.19
2023-05-23T16:17:50.489Z,23.20
2023-05-23T16:20:17.785Z,23.19
2023-05-23T16:22:46.009Z,23.17
2023-05-23T16:25:13.304Z,23.15
2023-05-23T16:27:40.706Z,23.12
2023-05-23T16:30:08.419Z,23.07
2023-05-23T16:32:35.639Z,23.02
2023-05-23T16:35:02.854Z,23.00
2023-05-23T16:37:30.034Z,22.97
2023-05-23T16:39:57.303Z,22.92
2023-05-23T16:42:24.469Z,22.87
2023-05-23T16:44:51.884Z,22.79
2023-05-23T16:47:19.323Z,22.74
2023-05-23T16:49:46.521Z,22.70
2023-05-23T16:52:14.137Z,22.67
2023-05-23T16:54:41.398Z,22.64
2023-05-23T16:57:08.578Z,22.59
2023-05-23T16:59:36.287Z,22.54
2023-05-23T17:02:04.460Z,22.49
2023-05-23T17:04:31.690Z,22.43
2023-05-23T17:06:58.888Z,22.39
2023-05-23T17:09:26.267Z,22.35
2023-05-23T17:11:53.456Z,22.26
2023-05-23T17:14:20.916Z,22.18
2023-05-23T17:16:48.094Z,22.13
2023-05-23T17:19:15.387Z,22.07
2023-05-23T17:21:42.642Z,22.02
2023-05-23T17:24:10.002Z,21.98
2023-05-23T17:26:37.458Z,21.92
2023-05-23T17:29:04.683Z,21.85
2023-05-23T17:31:32.010Z,21.80
2023-05-23T17:34:06.183Z,21.77
2023-05-23T17:37:04.990Z,21.71
2023-05-23T17:39:32.856Z,21.63
2023-05-23T17:42:01.408Z,21.56
2023-05-23T17:44:33.360Z,21.46
2023-05-23T17:47:00.791Z,21.37
2023-05-23T17:49:28.360Z,21.29
2023-05-23T17:51:56.660Z,21.23
2023-05-23T17:54:23.885Z,21.17
2023-05-23T17:56:51.626Z,21.10
2023-05-23T17:59:18.906Z,20.96
2023-05-23T18:01:47.045Z,20.85
2023-05-23T18:04:14.788Z,20.77
2023-05-23T18:06:42.405Z,20.67
2023-05-23T18:09:10.254Z,20.59
2023-05-23T18:11:39.025Z,20.50
2023-05-23T18:14:07.330Z,20.40
2023-05-23T18:16:34.567Z,20.37
2023-05-23T18:19:01.867Z,20.35
2023-05-23T18:21:29.306Z,20.30
2023-05-23T18:23:56.774Z,20.27
2023-05-23T18:26:23.951Z,20.22
2023-05-23T18:28:51.097Z,20.17
2023-05-23T18:31:18.470Z,20.12
2023-05-23T18:33:45.739Z,20.09
2023-05-23T18:36:15.833Z,20.04
2023-05-23T18:38:43.067Z,19.99
2023-05-23T18:41:13.910Z,19.95
2023-05-23T18:43:42.114Z,19.87
2023-05-23T18:46:09.595Z,19.78
2023-05-23T18:48:37.015Z,19.72
2023-05-23T18:51:04.449Z,19.65
2023-05-23T18:53:31.860Z,19.60
2023-05-23T18:55:59.181Z,19.56
2023-05-23T18:58:27.685Z,19.52
2023-05-23T19:00:54.988Z,19.49
2023-05-23T19:03:22.509Z,19.44
2023-05-23T19:05:50.254Z,19.39
2023-05-23T19:08:17.717Z,19.32
2023-05-23T19:10:47.042Z,19.26
2023-05-23T19:13:15.117Z,19.20
2023-05-23T19:15:42.845Z,19.16
2023-05-23T19:18:10.609Z,19.12
2023-05-23T19:20:38.695Z,19.08
2023-05-23T19:23:05.925Z,19.06
2023-05-23T19:25:33.158Z,19.03
2023-05-23T19:28:00.679Z,19.00
2023-05-23T19:30:27.895Z,18.96
2023-05-23T19:32:55.170Z,18.88
2023-05-23T19:35:23.105Z,18.79
2023-05-23T19:37:50.427Z,18.77
2023-05-23T19:40:17.627Z,18.77
2023-05-23T19:42:44.832Z,18.75
2023-05-23T19:45:12.474Z,18.69
2023-05-23T19:47:39.983Z,18.63
2023-05-23T19:50:09.033Z,18.58
2023-05-23T19:52:36.343Z,18.53
2023-05-23T19:55:04.251Z,18.51
2023-05-23T19:57:31.944Z,18.48
2023-05-23T19:59:59.145Z,18.46
2023-05-23T20:02:26.514Z,18.44
2023-05-23T20:04:54.651Z,18.40
2023-05-23T20:07:22.255Z,18.31
2023-05-23T20:09:49.516Z,18.25
2023-05-23T20:12:16.739Z,18.22
2023-05-23T20:14:43.916Z,18.21
2023-05-23T20:17:11.110Z,18.18
2023-05-23T20:19:40.702Z,18.18
2023-05-23T20:22:07.936Z,18.13
2023-05-23T20:24:35.189Z,18.11
2023-05-23T20:27:02.454Z,18.09
2023-05-23T20:29:30.043Z,18.04
2023-05-23T20:31:57.413Z,18.00
2023-05-23T20:34:24.587Z,17.97
2023-05-23T20:36:52.350Z,17.95
2023-05-23T20:39:22.004Z,17.91
2023-05-23T20:41:49.607Z,17.87
2023-05-23T20:44:17.268Z,17.85
2023-05-23T20:46:44.607Z,17.82
2023-05-23T20:49:11.869Z,17.83
2023-05-23T20:51:39.288Z,17.83
2023-05-23T20:54:06.573Z,17.79
2023-05-23T20:56:34.011Z,17.73
2023-05-23T20:59:01.197Z,17.71
2023-05-23T21:01:28.461Z,17.63
2023-05-23T21:03:56.025Z,17.48
2023-05-23T21:06:23.277Z,17.42
2023-05-23T21:08:50.654Z,17.39
2023-05-23T21:11:17.891Z,17.37
2023-05-23T21:13:45.157Z,17.35
2023-05-23T21:16:14.542Z,17.32
2023-05-23T21:18:42.080Z,17.31
2023-05-23T21:21:09.472Z,17.26
2023-05-23T21:23:36.998Z,17.23
2023-05-23T21:26:04.210Z,17.18
2023-05-23T21:28:31.689Z,17.15
2023-05-23T21:30:59.534Z,17.12
2023-05-23T21:33:26.823Z,17.08
2023-05-23T21:35:54.501Z,17.04
2023-05-23T21:38:25.135Z,17.00
2023-05-23T21:40:52.622Z,16.96
2023-05-23T21:43:19.890Z,16.93
2023-05-23T21:45:47.074Z,16.91
2023-05-23T21:48:14.236Z,16.88
2023-05-23T21:50:41.590Z,16.85
2023-05-23T21:53:09.051Z,16.78
2023-05-23T21:55:36.294Z,16.66
2023-05-23T21:58:03.499Z,16.60
2023-05-23T22:00:31.140Z,16.60
2023-05-23T22:02:58.394Z,16.59
2023-05-23T22:05:25.702Z,16.58
2023-05-23T22:07:52.872Z,16.56
2023-05-23T22:10:20.121Z,16.58
2023-05-23T22:12:47.325Z,16.44
2023-05-23T22:15:14.579Z,16.29
2023-05-23T22:17:43.775Z,16.27
2023-05-23T22:20:14.584Z,16.28
2023-05-23T22:22:42.058Z,16.28
2023-05-23T22:25:09.439Z,16.26
2023-05-23T22:27:36.653Z,16.23
2023-05-23T22:30:05.655Z,16.18
2023-05-23T22:32:33.052Z,16.10
2023-05-23T22:35:00.403Z,16.08
2023-05-23T22:37:27.600Z,16.14
2023-05-23T22:39:54.966Z,16.18
2023-05-23T22:42:22.225Z,16.22
2023-05-23T22:44:49.519Z,16.24
2023-05-23T22:47:18.362Z,16.27
2023-05-23T22:49:45.703Z,16.31
2023-05-23T22:52:12.913Z,16.32
2023-05-23T22:54:40.087Z,16.28
2023-05-23T22:57:07.278Z,16.23
2023-05-23T22:59:35.178Z,16.20
2023-05-23T23:02:02.420Z,16.22
2023-05-23T23:04:31.463Z,16.21
2023-05-23T23:07:04.999Z,16.19
2023-05-23T23:09:32.173Z,16.14
2023-05-23T23:11:59.352Z,16.08
2023-05-23T23:14:26.523Z,16.06
2023-05-23T23:16:54.468Z,16.00
2023-05-23T23:19:22.043Z,15.87
2023-05-23T23:21:49.355Z,15.80
2023-05-23T23:24:16.672Z,15.78
2023-05-23T23:26:43.873Z,15.79
2023-05-23T23:29:11.095Z,15.79
2023-05-23T23:31:38.304Z,15.77
2023-05-23T23:34:05.641Z,15.70
2023-05-23T23:36:32.871Z,15.63
2023-05-23T23:39:00.144Z,15.59
2023-05-23T23:41:27.902Z,15.58
2023-05-23T23:43:55.347Z,15.61
2023-05-23T23:46:22.567Z,15.61
2023-05-23T23:48:49.800Z,15.60
2023-05-23T23:51:17.006Z,15.61
2023-05-23T23:53:47.240Z,15.59
2023-05-23T23:56:15.658Z,15.61
2023-05-23T23:58:42.888Z,15.61
